Pagrindinis puslapis
METAR-TAF:

METAR-TAF

Oro uostai :

Ngaoundéré, Kamerūnas

platuma: 07-21N, ilguma: 013-34E, Aukštis: 1114 m

Dabartinis oras

Ataskaita buvo paskelbta 13 valandos ir 49 minutes, ne 09:00 UTC
Vėjas 7 kt iš Vakarų/Pietvakarių
Temperatūra 28°C
Drėgmė 55%
Slėgis 1020 hPa
Matomumas 10 km arba daugiau
Mažai debesys ne aukštis 1500 ft

METAR: FKKN 150900Z 25007KT 9999 FEW015 28/18 Q1020

Laikas: 23:49 (22:49 UTC)


TAF: trūkstamas

Orai ataskaitas ir orų prognozės (METAR, TAF).

turimą stotys yra geltonos ir raudonos taškus žemėlapyje.

Perkelti pele per norėdami pamatyti stoties vardą.

Tada spustelėkite, norėdami matyti oro stebėjimo ir prognozės.

Norėdami pakeisti žemėlapį: spustelėkite ant žalios mygtukų su juodo kryžiaus žemyn,; žalią mygtuką su brūkšneliu, jei norite nutolinti; arba žalių rodyklių gretimoms žemėlapius.


METAR-TAF: